sensor_id;sensor_type;location;lat;lon;timestamp;pressure;altitude;pressure_sealevel;temperature;humidity
64053;BME280;50299;49.524;8.536;2024-02-14T00:00:43;100945.31;;;2.44;62.83
64053;BME280;50299;49.524;8.536;2024-02-14T00:03:13;100946.63;;;2.42;63.18
64053;BME280;50299;49.524;8.536;2024-02-14T00:05:39;100950.75;;;2.44;62.95
64053;BME280;50299;49.524;8.536;2024-02-14T00:08:07;100954.00;;;2.41;63.05
64053;BME280;50299;49.524;8.536;2024-02-14T00:10:33;100944.94;;;2.31;63.43
64053;BME280;50299;49.524;8.536;2024-02-14T00:13:00;100945.75;;;2.31;62.91
64053;BME280;50299;49.524;8.536;2024-02-14T00:15:26;100945.81;;;2.41;62.56
64053;BME280;50299;49.524;8.536;2024-02-14T00:17:53;100945.28;;;2.39;62.97
64053;BME280;50299;49.524;8.536;2024-02-14T00:20:20;100948.03;;;2.44;63.54
64053;BME280;50299;49.524;8.536;2024-02-14T00:22:46;100960.34;;;2.47;63.78
64053;BME280;50299;49.524;8.536;2024-02-14T00:25:13;100953.94;;;2.68;62.48
64053;BME280;50299;49.524;8.536;2024-02-14T00:27:43;100952.00;;;2.69;61.96
64053;BME280;50299;49.524;8.536;2024-02-14T00:30:10;100968.47;;;2.79;62.13
64053;BME280;50299;49.524;8.536;2024-02-14T00:32:37;100955.84;;;2.68;62.23
64053;BME280;50299;49.524;8.536;2024-02-14T00:35:04;100959.19;;;2.80;61.63
64053;BME280;50299;49.524;8.536;2024-02-14T00:37:31;100958.63;;;2.83;62.16
64053;BME280;50299;49.524;8.536;2024-02-14T00:39:59;100956.47;;;2.85;61.59
64053;BME280;50299;49.524;8.536;2024-02-14T00:42:26;100951.91;;;3.01;60.52
64053;BME280;50299;49.524;8.536;2024-02-14T00:44:53;100950.53;;;2.99;60.75
64053;BME280;50299;49.524;8.536;2024-02-14T00:47:20;100946.56;;;2.74;61.69
64053;BME280;50299;49.524;8.536;2024-02-14T00:49:46;100942.03;;;2.95;61.23
64053;BME280;50299;49.524;8.536;2024-02-14T00:52:13;100940.09;;;2.90;61.06
64053;BME280;50299;49.524;8.536;2024-02-14T00:54:40;100927.63;;;3.10;61.07
64053;BME280;50299;49.524;8.536;2024-02-14T00:57:07;100931.69;;;3.02;61.25
64053;BME280;50299;49.524;8.536;2024-02-14T00:59:33;100925.13;;;2.93;61.13
64053;BME280;50299;49.524;8.536;2024-02-14T01:02:00;100923.94;;;2.79;61.40
64053;BME280;50299;49.524;8.536;2024-02-14T01:04:26;100918.84;;;2.92;61.12
64053;BME280;50299;49.524;8.536;2024-02-14T01:06:52;100913.91;;;2.94;61.47
64053;BME280;50299;49.524;8.536;2024-02-14T01:09:19;100915.03;;;2.99;61.08
64053;BME280;50299;49.524;8.536;2024-02-14T01:11:46;100918.03;;;3.02;60.85
64053;BME280;50299;49.524;8.536;2024-02-14T01:14:12;100915.09;;;3.14;61.37
64053;BME280;50299;49.524;8.536;2024-02-14T01:16:43;100915.84;;;2.99;62.35
64053;BME280;50299;49.524;8.536;2024-02-14T01:19:10;100923.28;;;3.09;61.58
64053;BME280;50299;49.524;8.536;2024-02-14T01:21:37;100913.16;;;3.09;61.52
64053;BME280;50299;49.524;8.536;2024-02-14T01:24:04;100911.78;;;3.07;61.19
64053;BME280;50299;49.524;8.536;2024-02-14T01:26:32;100909.56;;;2.99;61.48
64053;BME280;50299;49.524;8.536;2024-02-14T01:28:58;100908.75;;;2.98;61.59
64053;BME280;50299;49.524;8.536;2024-02-14T01:31:27;100896.94;;;2.82;62.04
64053;BME280;50299;49.524;8.536;2024-02-14T01:33:53;100894.22;;;2.87;62.06
64053;BME280;50299;49.524;8.536;2024-02-14T01:36:20;100896.41;;;2.90;62.84
64053;BME280;50299;49.524;8.536;2024-02-14T01:38:47;100897.53;;;3.00;62.23
64053;BME280;50299;49.524;8.536;2024-02-14T01:41:14;100893.16;;;2.93;62.21
64053;BME280;50299;49.524;8.536;2024-02-14T01:43:41;100888.22;;;2.90;62.28
64053;BME280;50299;49.524;8.536;2024-02-14T01:46:07;100895.84;;;2.83;61.49
64053;BME280;50299;49.524;8.536;2024-02-14T01:48:34;100891.47;;;2.82;62.39
64053;BME280;50299;49.524;8.536;2024-02-14T01:51:02;100883.56;;;2.86;61.69
64053;BME280;50299;49.524;8.536;2024-02-14T01:53:31;100883.34;;;3.03;60.69
64053;BME280;50299;49.524;8.536;2024-02-14T01:55:59;100894.28;;;3.08;61.42
64053;BME280;50299;49.524;8.536;2024-02-14T01:58:26;100885.94;;;3.30;61.73
64053;BME280;50299;49.524;8.536;2024-02-14T02:00:55;100882.91;;;3.26;61.75
64053;BME280;50299;49.524;8.536;2024-02-14T02:03:24;100879.38;;;3.26;61.37
64053;BME280;50299;49.524;8.536;2024-02-14T02:05:55;100875.28;;;3.33;61.48
64053;BME280;50299;49.524;8.536;2024-02-14T02:08:22;100873.91;;;3.26;61.02
64053;BME280;50299;49.524;8.536;2024-02-14T02:10:51;100866.53;;;3.36;60.59
64053;BME280;50299;49.524;8.536;2024-02-14T02:13:18;100859.44;;;3.30;61.78
64053;BME280;50299;49.524;8.536;2024-02-14T02:15:45;100869.53;;;3.35;61.35
64053;BME280;50299;49.524;8.536;2024-02-14T02:18:13;100870.34;;;3.30;61.18
64053;BME280;50299;49.524;8.536;2024-02-14T02:20:41;100864.88;;;3.25;61.45
64053;BME280;50299;49.524;8.536;2024-02-14T02:23:11;100868.41;;;3.21;61.82
64053;BME280;50299;49.524;8.536;2024-02-14T02:25:41;100869.72;;;3.08;61.19
64053;BME280;50299;49.524;8.536;2024-02-14T02:28:09;100858.47;;;2.99;62.06
64053;BME280;50299;49.524;8.536;2024-02-14T02:30:36;100861.19;;;2.89;61.85
64053;BME280;50299;49.524;8.536;2024-02-14T02:33:04;100851.63;;;2.91;62.96
64053;BME280;50299;49.524;8.536;2024-02-14T02:35:31;100840.97;;;2.90;62.08
64053;BME280;50299;49.524;8.536;2024-02-14T02:37:58;100847.81;;;2.92;63.01
64053;BME280;50299;49.524;8.536;2024-02-14T02:40:25;100847.81;;;2.92;62.81
64053;BME280;50299;49.524;8.536;2024-02-14T02:42:53;100847.56;;;2.99;63.03
64053;BME280;50299;49.524;8.536;2024-02-14T02:45:20;100855.22;;;3.07;63.10
64053;BME280;50299;49.524;8.536;2024-02-14T02:47:50;100854.94;;;3.04;62.44
64053;BME280;50299;49.524;8.536;2024-02-14T02:50:19;100863.94;;;2.99;63.28
64053;BME280;50299;49.524;8.536;2024-02-14T02:52:46;100866.72;;;3.04;63.20
64053;BME280;50299;49.524;8.536;2024-02-14T02:55:13;100871.03;;;2.90;63.99
64053;BME280;50299;49.524;8.536;2024-02-14T02:57:41;100869.47;;;3.14;63.40
64053;BME280;50299;49.524;8.536;2024-02-14T03:00:35;100875.22;;;3.18;63.33
64053;BME280;50299;49.524;8.536;2024-02-14T03:03:01;100876.31;;;3.22;62.81
64053;BME280;50299;49.524;8.536;2024-02-14T03:05:34;100883.41;;;3.13;63.47
64053;BME280;50299;49.524;8.536;2024-02-14T03:08:01;100881.19;;;3.10;63.22
64053;BME280;50299;49.524;8.536;2024-02-14T03:10:27;100879.38;;;3.26;62.47
64053;BME280;50299;49.524;8.536;2024-02-14T03:12:58;100878.84;;;3.29;62.79
64053;BME280;50299;49.524;8.536;2024-02-14T03:15:27;100881.59;;;3.44;61.80
64053;BME280;50299;49.524;8.536;2024-02-14T03:17:53;100878.56;;;3.40;61.84
64053;BME280;50299;49.524;8.536;2024-02-14T03:20:20;100884.06;;;3.51;62.34
64053;BME280;50299;49.524;8.536;2024-02-14T03:22:47;100879.13;;;3.48;61.79
64053;BME280;50299;49.524;8.536;2024-02-14T03:25:19;100886.81;;;3.71;62.09
64053;BME280;50299;49.524;8.536;2024-02-14T03:27:46;100881.59;;;3.69;61.51
64053;BME280;50299;49.524;8.536;2024-02-14T03:30:15;100889.56;;;3.66;61.38
64053;BME280;50299;49.524;8.536;2024-02-14T03:32:43;100892.00;;;3.78;61.33
64053;BME280;50299;49.524;8.536;2024-02-14T03:35:11;100893.94;;;3.82;61.12
64053;BME280;50299;49.524;8.536;2024-02-14T03:37:43;100892.84;;;3.78;60.91
64053;BME280;50299;49.524;8.536;2024-02-14T03:40:13;100895.59;;;3.83;60.62
64053;BME280;50299;49.524;8.536;2024-02-14T03:42:40;100890.91;;;3.74;61.08
64053;BME280;50299;49.524;8.536;2024-02-14T03:45:07;100891.19;;;3.77;61.46
64053;BME280;50299;49.524;8.536;2024-02-14T03:47:34;100894.22;;;3.91;60.77
64053;BME280;50299;49.524;8.536;2024-02-14T03:50:01;100888.19;;;3.89;60.82
64053;BME280;50299;49.524;8.536;2024-02-14T03:52:30;100893.94;;;3.98;60.13
64053;BME280;50299;49.524;8.536;2024-02-14T03:55:00;100893.41;;;3.96;60.60
64053;BME280;50299;49.524;8.536;2024-02-14T03:57:27;100897.22;;;3.95;59.73
64053;BME280;50299;49.524;8.536;2024-02-14T03:59:55;100896.66;;;3.98;60.32
64053;BME280;50299;49.524;8.536;2024-02-14T04:02:22;100897.78;;;3.91;60.26
64053;BME280;50299;49.524;8.536;2024-02-14T04:04:52;100901.31;;;3.97;60.10
64053;BME280;50299;49.524;8.536;2024-02-14T04:07:18;100901.84;;;3.94;60.77
64053;BME280;50299;49.524;8.536;2024-02-14T04:09:45;100894.75;;;3.98;60.23
64053;BME280;50299;49.524;8.536;2024-02-14T04:12:11;100899.13;;;3.89;60.80
64053;BME280;50299;49.524;8.536;2024-02-14T04:14:38;100896.66;;;3.98;60.30
64053;BME280;50299;49.524;8.536;2024-02-14T04:17:05;100894.50;;;4.00;60.06
64053;BME280;50299;49.524;8.536;2024-02-14T04:19:37;100896.97;;;3.91;60.19
64053;BME280;50299;49.524;8.536;2024-02-14T04:22:04;100887.94;;;3.96;60.30
64053;BME280;50299;49.524;8.536;2024-02-14T04:24:33;100889.28;;;3.88;59.80
64053;BME280;50299;49.524;8.536;2024-02-14T04:26:59;100891.22;;;3.87;60.31
64053;BME280;50299;49.524;8.536;2024-02-14T04:29:28;100895.03;;;3.97;59.87
64053;BME280;50299;49.524;8.536;2024-02-14T04:31:56;100902.41;;;3.96;60.43
64053;BME280;50299;49.524;8.536;2024-02-14T04:34:23;100900.22;;;3.98;60.22
64053;BME280;50299;49.524;8.536;2024-02-14T04:36:53;100915.53;;;4.09;60.17
64053;BME280;50299;49.524;8.536;2024-02-14T04:39:19;100917.44;;;4.14;60.06
64053;BME280;50299;49.524;8.536;2024-02-14T04:41:46;100907.59;;;3.98;59.52
64053;BME280;50299;49.524;8.536;2024-02-14T04:44:26;100913.63;;;4.10;60.14
64053;BME280;50299;49.524;8.536;2024-02-14T04:46:53;100915.25;;;4.11;60.08
64053;BME280;50299;49.524;8.536;2024-02-14T04:49:19;100913.34;;;4.16;59.88
64053;BME280;50299;49.524;8.536;2024-02-14T04:51:46;100916.09;;;4.22;59.29
64053;BME280;50299;49.524;8.536;2024-02-14T04:54:13;100911.47;;;4.07;59.81
64053;BME280;50299;49.524;8.536;2024-02-14T04:56:42;100908.19;;;3.95;59.56
64053;BME280;50299;49.524;8.536;2024-02-14T04:59:09;100914.72;;;3.83;59.93
64053;BME280;50299;49.524;8.536;2024-02-14T05:01:35;100918.00;;;4.01;59.98
64053;BME280;50299;49.524;8.536;2024-02-14T05:04:01;100909.53;;;3.97;60.41
64053;BME280;50299;49.524;8.536;2024-02-14T05:06:29;100910.88;;;4.10;60.24
64053;BME280;50299;49.524;8.536;2024-02-14T05:08:56;100907.34;;;4.04;60.06
64053;BME280;50299;49.524;8.536;2024-02-14T05:11:22;100906.22;;;3.90;60.40
64053;BME280;50299;49.524;8.536;2024-02-14T05:13:51;100914.75;;;3.99;59.54
64053;BME280;50299;49.524;8.536;2024-02-14T05:16:18;100902.69;;;4.05;59.93
64053;BME280;50299;49.524;8.536;2024-02-14T05:18:46;100902.38;;;4.27;59.69
64053;BME280;50299;49.524;8.536;2024-02-14T05:21:14;100893.94;;;4.13;59.81
64053;BME280;50299;49.524;8.536;2024-02-14T05:23:43;100913.63;;;4.15;59.93
64053;BME280;50299;49.524;8.536;2024-02-14T05:26:12;100913.63;;;4.25;59.45
64053;BME280;50299;49.524;8.536;2024-02-14T05:28:41;100910.63;;;4.01;60.34
64053;BME280;50299;49.524;8.536;2024-02-14T05:31:08;100902.16;;;4.03;60.44
64053;BME280;50299;49.524;8.536;2024-02-14T05:33:35;100908.16;;;4.05;60.78
64053;BME280;50299;49.524;8.536;2024-02-14T05:36:02;100897.22;;;4.05;60.60
64053;BME280;50299;49.524;8.536;2024-02-14T05:38:29;100897.22;;;4.05;60.38
64053;BME280;50299;49.524;8.536;2024-02-14T05:40:56;100895.03;;;4.17;60.28
64053;BME280;50299;49.524;8.536;2024-02-14T05:43:22;100892.53;;;4.26;59.91
64053;BME280;50299;49.524;8.536;2024-02-14T05:45:49;100900.47;;;4.37;60.06
64053;BME280;50299;49.524;8.536;2024-02-14T05:48:15;100904.56;;;4.35;59.44
64053;BME280;50299;49.524;8.536;2024-02-14T05:50:42;100913.63;;;4.15;60.23
64053;BME280;50299;49.524;8.536;2024-02-14T05:53:09;100913.06;;;4.18;60.66
64053;BME280;50299;49.524;8.536;2024-02-14T05:55:35;100913.09;;;4.28;60.43
64053;BME280;50299;49.524;8.536;2024-02-14T05:58:02;100918.00;;;4.26;59.54
64053;BME280;50299;49.524;8.536;2024-02-14T06:00:28;100921.25;;;4.43;59.44
64053;BME280;50299;49.524;8.536;2024-02-14T06:02:55;100921.81;;;4.35;59.59
64053;BME280;50299;49.524;8.536;2024-02-14T06:05:22;100908.69;;;4.17;59.85
64053;BME280;50299;49.524;8.536;2024-02-14T06:07:50;100902.41;;;4.16;60.60
64053;BME280;50299;49.524;8.536;2024-02-14T06:10:17;100900.22;;;4.24;60.19
64053;BME280;50299;49.524;8.536;2024-02-14T06:12:44;100909.53;;;4.28;60.46
64053;BME280;50299;49.524;8.536;2024-02-14T06:15:14;100913.63;;;4.25;60.54
64053;BME280;50299;49.524;8.536;2024-02-14T06:17:41;100917.97;;;4.31;60.02
64053;BME280;50299;49.524;8.536;2024-02-14T06:20:08;100919.66;;;4.32;60.19
64053;BME280;50299;49.524;8.536;2024-02-14T06:22:35;100920.44;;;4.43;59.97
64053;BME280;50299;49.524;8.536;2024-02-14T06:25:13;100917.44;;;4.45;59.88
64053;BME280;50299;49.524;8.536;2024-02-14T06:27:39;100920.16;;;4.50;59.52
64053;BME280;50299;49.524;8.536;2024-02-14T06:30:06;100924.28;;;4.52;59.61
64053;BME280;50299;49.524;8.536;2024-02-14T06:32:34;100919.88;;;4.61;59.95
64053;BME280;50299;49.524;8.536;2024-02-14T06:35:02;100930.00;;;4.56;59.03
64053;BME280;50299;49.524;8.536;2024-02-14T06:37:29;100937.94;;;4.47;59.89
64053;BME280;50299;49.524;8.536;2024-02-14T06:40:01;100934.94;;;4.49;60.20
64053;BME280;50299;49.524;8.536;2024-02-14T06:42:28;100940.41;;;4.54;60.11
64053;BME280;50299;49.524;8.536;2024-02-14T06:44:54;100945.63;;;4.45;59.30
64053;BME280;50299;49.524;8.536;2024-02-14T06:47:23;100944.50;;;4.51;59.98
64053;BME280;50299;49.524;8.536;2024-02-14T06:49:58;100950.81;;;4.57;60.08
64053;BME280;50299;49.524;8.536;2024-02-14T06:52:26;100959.84;;;4.57;59.83
64053;BME280;50299;49.524;8.536;2024-02-14T06:54:52;100956.03;;;4.48;60.07
64053;BME280;50299;49.524;8.536;2024-02-14T06:57:19;100942.34;;;4.43;60.14
64053;BME280;50299;49.524;8.536;2024-02-14T06:59:45;100946.44;;;4.46;60.04
64053;BME280;50299;49.524;8.536;2024-02-14T07:02:12;100962.88;;;4.61;59.96
64053;BME280;50299;49.524;8.536;2024-02-14T07:04:39;100965.31;;;4.62;59.75
64053;BME280;50299;49.524;8.536;2024-02-14T07:07:06;100966.13;;;4.68;60.02
64053;BME280;50299;49.524;8.536;2024-02-14T07:09:34;100963.94;;;4.70;60.40
64053;BME280;50299;49.524;8.536;2024-02-14T07:12:02;100964.78;;;4.60;60.52
64053;BME280;50299;49.524;8.536;2024-02-14T07:14:28;100961.47;;;4.84;60.22
64053;BME280;50299;49.524;8.536;2024-02-14T07:16:55;100967.19;;;4.92;60.24
64053;BME280;50299;49.524;8.536;2024-02-14T07:19:21;100972.13;;;4.96;60.14
64053;BME280;50299;49.524;8.536;2024-02-14T07:21:51;100980.63;;;4.94;60.26
64053;BME280;50299;49.524;8.536;2024-02-14T07:24:17;100978.16;;;4.92;59.91
64053;BME280;50299;49.524;8.536;2024-02-14T07:26:44;100978.09;;;5.08;60.16
64053;BME280;50299;49.524;8.536;2024-02-14T07:29:11;100975.41;;;4.87;60.58
64053;BME280;50299;49.524;8.536;2024-02-14T07:31:38;100974.59;;;4.87;60.34
64053;BME280;50299;49.524;8.536;2024-02-14T07:34:04;100981.13;;;5.01;60.18
64053;BME280;50299;49.524;8.536;2024-02-14T07:36:35;100994.25;;;5.14;59.61
64053;BME280;50299;49.524;8.536;2024-02-14T07:39:01;100988.50;;;5.16;59.57
64053;BME280;50299;49.524;8.536;2024-02-14T07:41:28;100995.81;;;5.36;59.90
64053;BME280;50299;49.524;8.536;2024-02-14T07:43:54;100996.56;;;5.52;59.01
64053;BME280;50299;49.524;8.536;2024-02-14T07:46:23;100991.34;;;5.55;59.18
64053;BME280;50299;49.524;8.536;2024-02-14T07:48:50;100989.66;;;5.64;59.08
64053;BME280;50299;49.524;8.536;2024-02-14T07:51:16;100990.69;;;5.74;58.70
64053;BME280;50299;49.524;8.536;2024-02-14T07:53:45;100992.78;;;5.87;58.19
64053;BME280;50299;49.524;8.536;2024-02-14T07:56:11;100990.88;;;5.87;57.99
64053;BME280;50299;49.524;8.536;2024-02-14T07:58:38;100988.47;;;5.81;58.27
64053;BME280;50299;49.524;8.536;2024-02-14T08:01:05;100999.69;;;5.84;58.13
64053;BME280;50299;49.524;8.536;2024-02-14T08:03:31;100995.88;;;5.75;58.74
64053;BME280;50299;49.524;8.536;2024-02-14T08:05:58;100999.13;;;5.82;58.95
64053;BME280;50299;49.524;8.536;2024-02-14T08:08:25;101000.16;;;5.91;58.82
64053;BME280;50299;49.524;8.536;2024-02-14T08:10:54;100997.66;;;6.00;59.24
64053;BME280;50299;49.524;8.536;2024-02-14T08:13:21;100992.66;;;6.07;59.44
64053;BME280;50299;49.524;8.536;2024-02-14T08:15:47;100998.19;;;6.02;59.67
64053;BME280;50299;49.524;8.536;2024-02-14T08:18:16;101006.13;;;6.09;59.90
64053;BME280;50299;49.524;8.536;2024-02-14T08:20:43;101009.06;;;6.18;60.00
64053;BME280;50299;49.524;8.536;2024-02-14T08:23:10;101004.41;;;6.18;59.91
64053;BME280;50299;49.524;8.536;2024-02-14T08:25:37;101002.75;;;6.17;60.53
64053;BME280;50299;49.524;8.536;2024-02-14T08:28:03;101012.13;;;6.11;61.25
64053;BME280;50299;49.524;8.536;2024-02-14T08:30:30;101000.81;;;6.23;60.95
64053;BME280;50299;49.524;8.536;2024-02-14T08:32:57;101007.09;;;6.28;60.75
64053;BME280;50299;49.524;8.536;2024-02-14T08:35:24;101008.28;;;6.12;61.98
64053;BME280;50299;49.524;8.536;2024-02-14T08:37:51;101003.63;;;6.07;61.96
64053;BME280;50299;49.524;8.536;2024-02-14T08:40:17;101016.75;;;6.15;62.42
64053;BME280;50299;49.524;8.536;2024-02-14T08:42:44;101016.75;;;6.15;62.63
64053;BME280;50299;49.524;8.536;2024-02-14T08:45:10;101013.19;;;6.15;62.93
64053;BME280;50299;49.524;8.536;2024-02-14T08:47:37;101013.75;;;6.17;62.78
64053;BME280;50299;49.524;8.536;2024-02-14T08:50:04;101018.81;;;6.39;62.91
64053;BME280;50299;49.524;8.536;2024-02-14T08:52:31;101014.06;;;6.50;62.84
64053;BME280;50299;49.524;8.536;2024-02-14T08:54:58;101013.03;;;6.40;62.57
64053;BME280;50299;49.524;8.536;2024-02-14T08:57:25;101002.84;;;6.46;62.98
64053;BME280;50299;49.524;8.536;2024-02-14T08:59:55;101006.09;;;6.48;62.96
64053;BME280;50299;49.524;8.536;2024-02-14T09:02:24;101006.66;;;6.50;62.81
64053;BME280;50299;49.524;8.536;2024-02-14T09:04:51;101003.09;;;6.45;62.72
64053;BME280;50299;49.524;8.536;2024-02-14T09:07:18;101004.16;;;6.49;63.29
64053;BME280;50299;49.524;8.536;2024-02-14T09:09:47;101006.22;;;6.67;62.39
64053;BME280;50299;49.524;8.536;2024-02-14T09:12:14;101004.22;;;6.73;62.20
64053;BME280;50299;49.524;8.536;2024-02-14T09:14:40;101001.00;;;6.65;62.98
64053;BME280;50299;49.524;8.536;2024-02-14T09:17:07;101001.41;;;6.78;63.16
64053;BME280;50299;49.524;8.536;2024-02-14T09:19:34;101002.28;;;7.02;62.59
64053;BME280;50299;49.524;8.536;2024-02-14T09:22:00;100997.72;;;7.17;62.65
64053;BME280;50299;49.524;8.536;2024-02-14T09:24:27;100994.50;;;7.57;62.07
64053;BME280;50299;49.524;8.536;2024-02-14T09:26:54;100998.00;;;7.63;60.95
64053;BME280;50299;49.524;8.536;2024-02-14T09:29:20;100993.22;;;7.69;59.97
64053;BME280;50299;49.524;8.536;2024-02-14T09:31:47;100993.78;;;7.89;59.98
64053;BME280;50299;49.524;8.536;2024-02-14T09:34:15;100985.88;;;7.83;59.61
64053;BME280;50299;49.524;8.536;2024-02-14T09:36:44;100990.28;;;8.03;59.11
64053;BME280;50299;49.524;8.536;2024-02-14T09:39:11;100993.25;;;7.87;59.54
64053;BME280;50299;49.524;8.536;2024-02-14T09:41:40;100995.78;;;8.03;58.94
64053;BME280;50299;49.524;8.536;2024-02-14T09:44:09;100998.53;;;8.03;59.51
64053;BME280;50299;49.524;8.536;2024-02-14T09:46:36;101004.31;;;8.20;58.66
64053;BME280;50299;49.524;8.536;2024-02-14T09:49:03;101005.84;;;8.45;58.67
64053;BME280;50299;49.524;8.536;2024-02-14T09:51:31;101009.41;;;8.46;58.15
64053;BME280;50299;49.524;8.536;2024-02-14T09:54:00;101008.91;;;8.44;57.84
64053;BME280;50299;49.524;8.536;2024-02-14T09:56:28;101017.19;;;8.57;58.26
64053;BME280;50299;49.524;8.536;2024-02-14T09:58:54;101019.16;;;8.38;57.10
64053;BME280;50299;49.524;8.536;2024-02-14T10:01:24;101014.19;;;8.40;57.80
64053;BME280;50299;49.524;8.536;2024-02-14T10:03:51;101009.13;;;8.28;58.65
64053;BME280;50299;49.524;8.536;2024-02-14T10:06:18;101019.88;;;8.11;58.76
64053;BME280;50299;49.524;8.536;2024-02-14T10:08:48;101018.63;;;8.03;58.58
64053;BME280;50299;49.524;8.536;2024-02-14T10:11:30;101023.00;;;7.85;59.19
64053;BME280;50299;49.524;8.536;2024-02-14T10:13:58;101022.03;;;7.76;59.25
64053;BME280;50299;49.524;8.536;2024-02-14T10:16:29;101030.38;;;7.90;59.27
64053;BME280;50299;49.524;8.536;2024-02-14T10:18:56;101030.00;;;7.78;59.56
64053;BME280;50299;49.524;8.536;2024-02-14T10:21:24;101033.09;;;7.71;59.93
64053;BME280;50299;49.524;8.536;2024-02-14T10:23:52;101034.47;;;7.74;59.95
64053;BME280;50299;49.524;8.536;2024-02-14T10:26:20;101033.75;;;7.63;60.46
64053;BME280;50299;49.524;8.536;2024-02-14T10:28:46;101040.25;;;7.72;60.11
64053;BME280;50299;49.524;8.536;2024-02-14T10:31:16;101035.47;;;7.59;60.56
64053;BME280;50299;49.524;8.536;2024-02-14T10:33:42;101039.16;;;7.73;61.33
64053;BME280;50299;49.524;8.536;2024-02-14T10:36:12;101044.19;;;7.66;60.74
64053;BME280;50299;49.524;8.536;2024-02-14T10:38:39;101042.94;;;7.77;60.84
64053;BME280;50299;49.524;8.536;2024-02-14T10:41:06;101042.88;;;7.82;60.87
64053;BME280;50299;49.524;8.536;2024-02-14T10:43:36;101050.38;;;7.96;61.11
64053;BME280;50299;49.524;8.536;2024-02-14T10:46:08;101055.88;;;7.96;60.95
64053;BME280;50299;49.524;8.536;2024-02-14T10:48:38;101051.34;;;8.05;60.79
64053;BME280;50299;49.524;8.536;2024-02-14T10:51:05;101046.88;;;8.09;61.34
64053;BME280;50299;49.524;8.536;2024-02-14T10:53:33;101035.22;;;7.98;61.86
64053;BME280;50299;49.524;8.536;2024-02-14T10:56:01;101035.13;;;8.22;61.69
64053;BME280;50299;49.524;8.536;2024-02-14T10:58:30;101033.63;;;8.30;61.23
64053;BME280;50299;49.524;8.536;2024-02-14T11:00:57;101039.06;;;8.35;61.23
64053;BME280;50299;49.524;8.536;2024-02-14T11:03:24;101036.81;;;8.56;61.26
64053;BME280;50299;49.524;8.536;2024-02-14T11:05:53;101036.81;;;8.56;60.26
64053;BME280;50299;49.524;8.536;2024-02-14T11:08:20;101046.72;;;8.38;61.30
64053;BME280;50299;49.524;8.536;2024-02-14T11:10:55;101052.22;;;8.38;60.97
64053;BME280;50299;49.524;8.536;2024-02-14T11:13:31;101047.84;;;8.37;61.22
64053;BME280;50299;49.524;8.536;2024-02-14T11:16:01;101051.81;;;8.31;61.28
64053;BME280;50299;49.524;8.536;2024-02-14T11:18:29;101055.66;;;8.49;60.94
64053;BME280;50299;49.524;8.536;2024-02-14T11:20:56;101054.25;;;8.51;61.58
64053;BME280;50299;49.524;8.536;2024-02-14T11:23:24;101053.25;;;8.61;60.87
64053;BME280;50299;49.524;8.536;2024-02-14T11:26:03;101061.44;;;8.66;60.35
64053;BME280;50299;49.524;8.536;2024-02-14T11:28:36;101053.91;;;8.72;60.23
64053;BME280;50299;49.524;8.536;2024-02-14T11:31:03;101044.72;;;8.44;60.96
64053;BME280;50299;49.524;8.536;2024-02-14T11:33:32;101050.03;;;8.54;60.53
64053;BME280;50299;49.524;8.536;2024-02-14T11:36:07;101046.03;;;8.46;59.96
64053;BME280;50299;49.524;8.536;2024-02-14T11:38:37;101043.69;;;8.39;61.53
64053;BME280;50299;49.524;8.536;2024-02-14T11:41:06;101034.03;;;8.56;61.26
64053;BME280;50299;49.524;8.536;2024-02-14T11:43:33;101037.03;;;8.59;60.69
64053;BME280;50299;49.524;8.536;2024-02-14T11:46:00;101042.38;;;8.51;61.18
64053;BME280;50299;49.524;8.536;2024-02-14T11:48:28;101036.25;;;8.54;61.17
64053;BME280;50299;49.524;8.536;2024-02-14T11:50:55;101034.22;;;8.78;61.17
64053;BME280;50299;49.524;8.536;2024-02-14T11:53:22;101028.13;;;8.95;61.28
64053;BME280;50299;49.524;8.536;2024-02-14T11:55:49;101024.06;;;8.93;60.13
64053;BME280;50299;49.524;8.536;2024-02-14T11:58:18;101020.66;;;8.96;60.45
64053;BME280;50299;49.524;8.536;2024-02-14T12:00:48;101018.75;;;9.10;60.35
64053;BME280;50299;49.524;8.536;2024-02-14T12:03:20;101021.31;;;9.06;59.90
64053;BME280;50299;49.524;8.536;2024-02-14T12:05:49;101010.59;;;9.19;60.02
64053;BME280;50299;49.524;8.536;2024-02-14T12:08:17;101012.22;;;9.20;60.22
64053;BME280;50299;49.524;8.536;2024-02-14T12:10:45;101004.16;;;9.23;59.83
64053;BME280;50299;49.524;8.536;2024-02-14T12:13:21;100995.66;;;9.20;60.06
64053;BME280;50299;49.524;8.536;2024-02-14T12:15:49;101004.03;;;9.56;59.88
64053;BME280;50299;49.524;8.536;2024-02-14T12:18:18;101001.03;;;9.66;59.67
64053;BME280;50299;49.524;8.536;2024-02-14T12:20:45;101014.41;;;10.00;59.68
64053;BME280;50299;49.524;8.536;2024-02-14T12:23:18;101011.09;;;10.12;58.04
64053;BME280;50299;49.524;8.536;2024-02-14T12:25:46;101006.13;;;10.23;58.44
64053;BME280;50299;49.524;8.536;2024-02-14T12:28:15;101013.09;;;10.43;58.26
64053;BME280;50299;49.524;8.536;2024-02-14T12:30:43;101010.13;;;10.39;56.51
64053;BME280;50299;49.524;8.536;2024-02-14T12:33:13;101013.47;;;10.50;57.69
64053;BME280;50299;49.524;8.536;2024-02-14T12:35:42;101012.72;;;10.58;57.09
64053;BME280;50299;49.524;8.536;2024-02-14T12:38:11;101019.63;;;10.47;57.13
64053;BME280;50299;49.524;8.536;2024-02-14T12:40:38;101015.72;;;10.48;56.84
64053;BME280;50299;49.524;8.536;2024-02-14T12:43:08;101017.53;;;10.52;56.50
64053;BME280;50299;49.524;8.536;2024-02-14T12:45:35;101015.38;;;10.41;57.45
64053;BME280;50299;49.524;8.536;2024-02-14T12:48:02;101015.09;;;10.51;57.66
64053;BME280;50299;49.524;8.536;2024-02-14T12:50:31;101009.81;;;10.18;57.41
64053;BME280;50299;49.524;8.536;2024-02-14T12:52:58;101003.63;;;10.13;58.09
64053;BME280;50299;49.524;8.536;2024-02-14T12:55:25;101010.44;;;10.15;57.98
64053;BME280;50299;49.524;8.536;2024-02-14T12:57:52;101003.91;;;10.11;58.36
64053;BME280;50299;49.524;8.536;2024-02-14T13:00:21;100995.94;;;10.32;58.56
64053;BME280;50299;49.524;8.536;2024-02-14T13:02:49;100998.97;;;10.22;58.49